Flight Track Log - Related Links

Times and Time Zones

All times are in EDT time to prevent confusion due to time zone crossing. See the SWA1728 flight status page for this flight to view local times or setup timezone preferences in your user account.

Time Position Orientation Groundspeed Altitude Reporting Facility
EDT Latitude Longitude Course Direction KTS MPH feet Rate Location/Type
Fri 21:37:24 41.8000 -87.7833 48° Northeast 159 183 1,800  Level Chicago TRACON
Fri 21:38:24 41.8333 -87.7333 48° Northeast 215 247 3,700 2,615 Climbing Chicago TRACON
Fri 21:40:23 41.7083 -87.7600 189° South 263 303 9,600 2,718 Climbing Chicago Center
Fri 21:41:25 41.6336 -87.7892 196° South 280 322 11,900 2,081 Climbing Chicago Center
Fri 21:42:27 41.5464 -87.8236 196° South 321 369 13,900 2,341 Climbing Chicago Center
Fri 21:43:28 41.4531 -87.8619 197° South 345 397 16,700 2,439 Climbing Chicago Center
Fri 21:44:30 41.3572 -87.8825 189° South 348 400 18,900 1,742 Climbing Chicago Center
Fri 21:45:32 41.2556 -87.8928 184° South 360 414 20,300 1,707 Climbing Chicago Center
Fri 21:46:33 41.1481 -87.8892 179° South 382 440 22,400 1,902 Climbing Chicago Center
Fri 21:47:35 41.0192 -87.8861 179° South 387 445 24,200 1,694 Climbing Chicago Center
Fri 21:48:37 40.9089 -87.8806 178° South 395 455 25,900 1,452 Climbing Chicago Center
Fri 21:49:39 40.7978 -87.8778 179° South 400 460 27,200 1,268 Climbing Chicago Center
Fri 21:50:40 40.6833 -87.8731 178° South 408 470 28,500 1,463 Climbing Chicago Center
Fri 21:51:42 40.5686 -87.8708 179° South 413 475 30,200 1,707 Climbing Chicago Center
Fri 21:52:43 40.4572 -87.8672 179° South 405 466 32,000 1,527 Climbing Chicago Center
Fri 21:53:32 40.3608 -87.8678 180° South 399 459 33,000 545 Climbing Indianapolis Center
Fri 21:54:33 40.2517 -87.8622 178° South 396 456 33,000  Level Indianapolis Center
Fri 21:55:35 40.1406 -87.8469 174° South 401 461 33,000  Level Indianapolis Center
Fri 21:56:36 40.0308 -87.8228 170° South 401 461 33,000  Level Indianapolis Center
Fri 21:57:37 39.9003 -87.7950 171° South 399 459 33,000  Level Indianapolis Center
Fri 21:58:38 39.7922 -87.7706 170° South 398 458 33,000  Level Indianapolis Center
Fri 21:59:39 39.6844 -87.7469 170° South 396 456 33,000  Level Indianapolis Center
Fri 22:00:40 39.5758 -87.7231 170° South 397 457 33,000  Level Indianapolis Center
Fri 22:01:41 39.4689 -87.6994 170° South 394 453 33,000  Level Indianapolis Center
Fri 22:02:42 39.3617 -87.6764 171° South 394 453 33,000  Level Indianapolis Center
Fri 22:03:44 39.2531 -87.6525 170° South 394 453 33,000  Level Indianapolis Center
Fri 22:04:45 39.1456 -87.6294 171° South 391 450 33,000  Level Indianapolis Center
Fri 22:05:46 39.0378 -87.6069 171° South 391 450 33,000  Level Indianapolis Center
Fri 22:06:47 38.9322 -87.5836 170° South 386 444 33,000  Level Indianapolis Center
Fri 22:07:48 38.8256 -87.5611 171° South 386 444 33,000  Level Indianapolis Center
Fri 22:08:49 38.6981 -87.5342 171° South 385 443 33,000  Level Indianapolis Center
Fri 22:09:50 38.5925 -87.5125 171° South 385 443 33,000  Level Indianapolis Center
Fri 22:10:51 38.4861 -87.4906 171° South 386 444 33,000  Level Indianapolis Center
Fri 22:11:53 38.3803 -87.4669 170° South 387 445 33,000  Level Indianapolis Center
Fri 22:12:54 38.2742 -87.4447 171° South 389 448 33,000  Level Indianapolis Center
Fri 22:13:55 38.1678 -87.4242 171° South 388 447 33,000 -344 Level Indianapolis Center
Fri 22:14:56 38.0611 -87.4006 170° South 392 451 32,300 -836 Descending Indianapolis Center
Fri 22:15:57 37.9531 -87.3786 171° South 394 453 31,300 -984 Descending Indianapolis Center
Fri 22:16:58 37.8461 -87.3553 170° South 390 449 30,300 -984 Descending Indianapolis Center
Fri 22:17:59 37.7331 -87.3333 171° South 388 447 29,300 -984 Descending Indianapolis Center
Fri 22:19:00 37.6275 -87.3119 171° South 382 440 28,300 -1,111 Descending Indianapolis Center
Fri 22:19:20 37.5922 -87.3056 172° South 386 444 27,800 -1,950 Descending Memphis Center
Fri 22:20:20 37.4917 -87.2858 171° South 375 432 25,700 -2,050 Descending Memphis Center
Fri 22:21:20 37.3975 -87.2661 171° South 353 406 23,700 -1,350 Descending Memphis Center
Fri 22:22:20 37.3117 -87.2433 168° South 328 377 23,000 -378 Descending Memphis Center
Fri 22:23:11 37.2233 -87.2181 167° South 327 376 23,000  Level Memphis Center
Fri 22:23:48 37.1731 -87.2044 168° South 329 379 23,000  Level Memphis Center
Fri 22:24:20 37.1247 -87.1908 167° South 328 377 23,000 -1,300 Level Memphis Center
Fri 22:24:48 37.0806 -87.1769 166° South 332 382 21,700 -2,500 Descending Memphis Center
Fri 22:25:20 37.0322 -87.1606 165° South 334 384 20,500 -2,361 Descending Memphis Center
Fri 22:25:49 36.9883 -87.1494 169° South 345 397 19,300 -2,400 Descending Memphis Center
Fri 22:26:20 36.9400 -87.1358 167° South 340 391 18,100 -2,110 Descending Memphis Center
Fri 22:27:20 36.8497 -87.1083 166° South 333 383 16,100 -1,950 Descending Memphis Center
Fri 22:28:20 36.7694 -87.0700 159° South 319 367 14,200 -2,150 Descending Memphis Center
Fri 22:29:20 36.6953 -87.0239 154° Southeast 300 345 11,800 -2,150 Descending Memphis Center
Fri 22:30:20 36.6433 -86.9536 133° Southeast 280 322 9,900 -1,600 Descending Memphis Center
Fri 22:31:20 36.5978 -86.8833 129° Southeast 266 306 8,600 -1,150 Descending Memphis Center
Fri 22:32:20 36.5606 -86.8228 127° Southeast 258 297 7,600 -1,000 Descending Memphis Center
Fri 22:33:20 36.5233 -86.7572 125° Southeast 240 276 6,600 -1,050 Descending Memphis Center
Fri 22:34:20 36.4858 -86.6944 127° Southeast 230 265 5,500 -1,300 Descending Memphis Center
Fri 22:35:20 36.4406 -86.6425 137° Southeast 223 257 4,000 -850 Descending Memphis Center
Fri 22:36:20 36.3750 -86.6119 159° South 223 257 3,800 -500 Descending Memphis Center
Fri 22:37:20 36.3164 -86.5992 170° South 229 264 3,000 -400 Descending Memphis Center
Fri 22:38:20 36.2644 -86.6067 187° South 208 239 3,000 -300 Level Memphis Center
Fri 22:39:20 36.2233 -86.6239 199° South 179 206 2,400 -650 Descending Memphis Center
Fri 22:40:20 36.1842 -86.6386 197° South 155 178 1,700 -750 Descending Memphis Center
Fri 22:41:20 36.1450 -86.6558 200° South 148 170 900 -500 Descending Memphis Center
Fri 22:42:20 36.1078 -86.6678 195° South 148 170 700 -200 Descending Memphis Center
Fri 22:44:00 36.1167 -86.6667 90° East  Level FlightAware
Fri 22:51:00 36.1245 -86.6782 90° East  Level Estimated
Fri 22:52:00 36.1245 -86.6782 90° East  Level Estimated
Fri 22:53:00 36.1245 -86.6782 90° East  Level Estimated
Fri 22:54:00 36.1245 -86.6782 90° East  Level Estimated
Fri 22:55:00 36.1245 -86.6782 90° East  Level Estimated
Fri 22:56:00 36.1245 -86.6782 90° East  Level Estimated
Fri 22:57:00 36.1245 -86.6782 90° East  Level Estimated
Fri 22:58:00 36.1245 -86.6782 90° East  Level Estimated
Fri 22:59:00 36.1245 -86.6782 90° East  Level Estimated
Fri 23:00:00 36.1245 -86.6782 90° East  Level Estimated
Fri 23:01:00 36.1245 -86.6782 90° East  Level Estimated
Fri 23:02:00 36.1245 -86.6782 90° East  Level Estimated

Login

Don't have an account? Register now (free) for customized features, flight alerts, and more!